Time;durP1;ratioP1;P1;durP2;ratioP2;P2;SDS_P1;SDS_P2;PMS_P1;PMS_P2;Temp;Humidity;BMP_temperature;BMP_pressure;BME280_temperature;BME280_humidity;BME280_pressure;Samples;Min_cycle;Max_cycle;Signal;HPM_P1;HPM_P2
2022/08/21 00:01:09;;;;;;;5.53;1.25;;;19.80;99.90;;;;;;4927318;29;20055;-91
2022/08/21 00:03:35;;;;;;;3.92;1.08;;;19.80;99.90;;;;;;4938626;29;20016;-91
2022/08/21 00:06:01;;;;;;;3.58;1.13;;;19.70;99.90;;;;;;4920566;29;20530;-91
2022/08/21 00:08:27;;;;;;;6.18;1.58;;;19.70;99.90;;;;;;4918696;29;20032;-91
2022/08/21 00:10:53;;;;;;;7.85;1.45;;;19.70;99.90;;;;;;4918478;29;20031;-90
2022/08/21 00:13:19;;;;;;;7.80;1.40;;;19.70;99.90;;;;;;4901222;29;20115;-91
2022/08/21 00:15:45;;;;;;;4.65;1.00;;;19.70;99.90;;;;;;4901014;29;20032;-91
2022/08/21 00:18:12;;;;;;;3.78;1.23;;;19.60;99.90;;;;;;4918148;29;20028;-90
2022/08/21 00:20:40;;;;;;;5.20;1.23;;;19.60;99.90;;;;;;4900744;29;20028;-92
2022/08/21 00:23:06;;;;;;;8.38;1.83;;;19.60;99.90;;;;;;4917857;29;20437;-91
2022/08/21 00:25:32;;;;;;;6.78;1.60;;;19.50;99.90;;;;;;4917863;29;20028;-90
2022/08/21 00:28:01;;;;;;;5.45;1.60;;;19.50;99.90;;;;;;4918043;29;20031;-91
2022/08/21 00:30:27;;;;;;;6.70;1.83;;;19.50;99.90;;;;;;4918239;29;20115;-91
2022/08/21 00:32:55;;;;;;;4.20;1.17;;;19.50;99.90;;;;;;4917791;29;20024;-91
2022/08/21 00:35:25;;;;;;;5.43;1.38;;;19.50;99.90;;;;;;4917984;29;20115;-91
2022/08/21 00:37:51;;;;;;;4.78;1.05;;;19.40;99.90;;;;;;4900904;29;20023;-91
2022/08/21 00:40:22;;;;;;;6.95;1.50;;;19.40;99.90;;;;;;4918291;29;20028;-90
2022/08/21 00:42:49;;;;;;;9.82;1.90;;;19.40;99.90;;;;;;4900925;29;20068;-90
2022/08/21 00:45:15;;;;;;;6.00;1.65;;;19.40;99.90;;;;;;4918266;29;20059;-92
2022/08/21 00:47:41;;;;;;;6.00;1.48;;;19.40;99.90;;;;;;4900492;29;20036;-92
2022/08/21 00:50:13;;;;;;;5.95;1.58;;;19.40;99.90;;;;;;4900521;29;20020;-91
2022/08/21 00:52:41;;;;;;;6.93;1.55;;;19.40;99.90;;;;;;4900246;29;20039;-91
2022/08/21 00:55:09;;;;;;;7.25;1.73;;;19.30;99.90;;;;;;4895053;29;20052;-91
2022/08/21 00:57:47;;;;;;;6.57;1.70;;;19.30;99.90;;;;;;4914408;29;20614;-91
2022/08/21 01:00:17;;;;;;;10.15;1.90;;;19.30;99.90;;;;;;4920937;29;20609;-91
2022/08/21 01:02:43;;;;;;;6.45;1.60;;;19.30;99.90;;;;;;4917660;29;20051;-90
2022/08/21 01:05:10;;;;;;;8.27;2.08;;;19.30;99.90;;;;;;4916960;29;20052;-93
2022/08/21 01:07:36;;;;;;;6.93;2.20;;;19.30;99.90;;;;;;4900469;29;20119;-92
2022/08/21 01:10:04;;;;;;;7.80;1.60;;;19.30;99.90;;;;;;4900231;29;20374;-92
2022/08/21 01:12:30;;;;;;;6.90;2.00;;;19.30;99.90;;;;;;4916822;29;20497;-91
2022/08/21 01:14:55;;;;;;;4.93;1.73;;;19.30;99.90;;;;;;4917049;29;20035;-92
2022/08/21 01:17:25;;;;;;;6.82;1.92;;;19.30;99.90;;;;;;4899307;29;20028;-92
2022/08/21 01:19:50;;;;;;;5.35;1.80;;;19.30;99.90;;;;;;4899474;29;20028;-90
2022/08/21 01:22:16;;;;;;;5.75;1.52;;;19.20;99.90;;;;;;4900059;29;20677;-90
2022/08/21 01:24:42;;;;;;;11.05;2.33;;;19.20;99.90;;;;;;4899925;29;20106;-90
2022/08/21 01:27:07;;;;;;;7.70;1.90;;;19.20;99.90;;;;;;4893058;29;20040;-91
2022/08/21 01:29:42;;;;;;;11.07;2.10;;;19.20;99.90;;;;;;4916377;29;20582;-91
2022/08/21 01:32:13;;;;;;;7.03;1.67;;;19.10;99.90;;;;;;4917021;29;20088;-91
2022/08/21 01:34:42;;;;;;;5.03;1.90;;;19.10;99.90;;;;;;4898544;29;20016;-91
2022/08/21 01:37:08;;;;;;;6.25;1.92;;;19.10;99.90;;;;;;4909625;29;20024;-91
2022/08/21 01:39:35;;;;;;;9.68;1.95;;;19.10;99.90;;;;;;4886625;29;20024;-91
2022/08/21 01:42:01;;;;;;;7.00;1.58;;;19.10;99.90;;;;;;4907532;29;20367;-92
2022/08/21 01:44:27;;;;;;;7.97;1.83;;;19.10;99.90;;;;;;4914464;29;20036;-91
2022/08/21 01:46:53;;;;;;;6.95;1.80;;;19.00;99.90;;;;;;4902518;29;20039;-92
2022/08/21 01:49:20;;;;;;;8.85;1.98;;;19.00;99.90;;;;;;4902540;29;20021;-90
2022/08/21 01:51:45;;;;;;;9.60;1.63;;;19.00;99.90;;;;;;4916839;29;20028;-90
2022/08/21 01:54:11;;;;;;;9.70;2.15;;;18.90;99.90;;;;;;4915457;29;20032;-91
2022/08/21 01:56:43;;;;;;;9.48;1.65;;;18.90;99.90;;;;;;4918648;29;20517;-91
2022/08/21 01:59:10;;;;;;;7.75;1.60;;;18.90;99.90;;;;;;4922360;29;20024;-91
2022/08/21 02:01:39;;;;;;;5.50;2.03;;;18.90;99.90;;;;;;4920665;29;20120;-92
2022/08/21 02:04:05;;;;;;;12.38;2.25;;;18.80;99.90;;;;;;4901060;29;20588;-90
2022/08/21 02:06:31;;;;;;;10.70;2.03;;;18.80;99.90;;;;;;4901563;29;20079;-92
2022/08/21 02:08:56;;;;;;;6.47;1.77;;;18.70;99.90;;;;;;4921364;29;20024;-91
2022/08/21 02:11:22;;;;;;;8.57;1.70;;;18.70;99.90;;;;;;4925133;29;20044;-91
2022/08/21 02:13:48;;;;;;;4.80;1.70;;;18.70;99.90;;;;;;4922006;29;20038;-91
2022/08/21 02:16:14;;;;;;;9.75;2.00;;;18.70;99.90;;;;;;4923611;29;20115;-91
2022/08/21 02:18:40;;;;;;;7.97;1.70;;;18.70;99.90;;;;;;4922815;29;20024;-90
2022/08/21 02:21:06;;;;;;;6.82;1.60;;;18.70;99.90;;;;;;4908966;29;20099;-90
2022/08/21 02:23:32;;;;;;;9.02;1.83;;;18.70;99.90;;;;;;4904404;29;20040;-90
2022/08/21 02:25:59;;;;;;;7.40;1.70;;;18.60;99.90;;;;;;4904901;29;20477;-91
2022/08/21 02:28:26;;;;;;;10.07;1.80;;;18.60;99.90;;;;;;4919652;29;20028;-91
2022/08/21 02:30:53;;;;;;;9.35;1.67;;;18.60;99.90;;;;;;4902029;29;20035;-92
2022/08/21 02:33:19;;;;;;;8.90;1.90;;;18.50;99.90;;;;;;4899418;29;20035;-91
2022/08/21 02:35:46;;;;;;;10.70;2.13;;;18.50;99.90;;;;;;4911897;29;20107;-91
2022/08/21 02:38:21;;;;;;;7.60;1.63;;;18.50;99.90;;;;;;4899431;29;20119;-91
2022/08/21 02:40:50;;;;;;;12.05;1.83;;;18.50;99.90;;;;;;4898723;29;20083;-91
2022/08/21 02:43:16;;;;;;;8.55;1.70;;;18.50;99.90;;;;;;4915905;29;20039;-91
2022/08/21 02:45:42;;;;;;;8.50;2.10;;;18.40;99.90;;;;;;4915626;29;20477;-90
2022/08/21 02:48:11;;;;;;;9.73;2.03;;;18.40;99.90;;;;;;4915604;29;20024;-91
2022/08/21 02:50:40;;;;;;;10.05;2.10;;;18.40;99.90;;;;;;4898699;29;20537;-92
2022/08/21 02:53:07;;;;;;;10.55;2.35;;;18.40;99.90;;;;;;4915239;29;20111;-91
2022/08/21 02:55:35;;;;;;;9.82;1.83;;;18.40;99.90;;;;;;4915596;29;20048;-92
2022/08/21 02:58:02;;;;;;;9.13;2.05;;;18.40;99.90;;;;;;4898484;29;20028;-90
2022/08/21 03:00:30;;;;;;;8.30;1.90;;;18.30;99.90;;;;;;4915626;29;20035;-91
2022/08/21 03:02:57;;;;;;;10.20;2.58;;;18.30;99.90;;;;;;4916091;29;20020;-92
2022/08/21 03:05:24;;;;;;;12.13;2.03;;;18.30;99.90;;;;;;4898709;29;20094;-91
2022/08/21 03:07:51;;;;;;;10.43;1.88;;;18.30;99.90;;;;;;4915479;29;20042;-91
2022/08/21 03:10:17;;;;;;;7.95;1.73;;;18.30;99.90;;;;;;4898243;29;20366;-90
2022/08/21 03:12:43;;;;;;;6.90;1.48;;;18.20;99.90;;;;;;4915054;29;20027;-90
2022/08/21 03:15:17;;;;;;;8.75;1.90;;;18.20;99.90;;;;;;4898063;29;20048;-90
2022/08/21 03:17:43;;;;;;;5.88;1.65;;;18.20;99.90;;;;;;4914980;29;20031;-91
2022/08/21 03:20:10;;;;;;;9.23;1.70;;;18.10;99.90;;;;;;4915312;29;20091;-91
2022/08/21 03:22:36;;;;;;;9.77;1.70;;;18.20;99.90;;;;;;4897853;29;20507;-92
2022/08/21 03:25:02;;;;;;;7.53;1.90;;;18.20;99.90;;;;;;4914954;29;20047;-92
2022/08/21 03:27:28;;;;;;;7.72;2.13;;;18.10;99.90;;;;;;4897714;29;20040;-91
2022/08/21 03:29:55;;;;;;;7.82;1.75;;;18.10;99.90;;;;;;4914784;29;20016;-91
2022/08/21 03:32:21;;;;;;;8.43;1.88;;;18.10;99.90;;;;;;4914765;29;20035;-91
2022/08/21 03:34:47;;;;;;;6.43;1.77;;;18.10;99.90;;;;;;4894774;29;20443;-91
2022/08/21 03:37:14;;;;;;;10.68;1.67;;;18.10;99.90;;;;;;4906788;29;20023;-92
2022/08/21 03:39:41;;;;;;;7.60;1.98;;;18.00;99.90;;;;;;4897018;29;20044;-90
2022/08/21 03:42:07;;;;;;;8.85;2.05;;;18.00;99.90;;;;;;4897126;29;20059;-90
2022/08/21 03:44:34;;;;;;;8.23;2.08;;;18.00;99.90;;;;;;4897603;29;20028;-91
2022/08/21 03:47:00;;;;;;;9.15;2.75;;;18.00;99.90;;;;;;4914838;29;20126;-91
2022/08/21 03:49:26;;;;;;;7.82;2.13;;;18.00;99.90;;;;;;4897514;29;20116;-91
2022/08/21 03:51:52;;;;;;;6.78;2.47;;;18.00;99.90;;;;;;4914577;29;20024;-91
2022/08/21 03:54:18;;;;;;;10.85;2.47;;;18.00;99.90;;;;;;4914334;29;20035;-91
2022/08/21 03:56:44;;;;;;;9.18;2.17;;;18.00;99.90;;;;;;4897289;29;20063;-91
2022/08/21 03:59:10;;;;;;;8.23;2.08;;;18.00;99.90;;;;;;4914879;29;20047;-90
2022/08/21 04:01:35;;;;;;;11.32;2.28;;;18.00;99.90;;;;;;4914553;29;20029;-91
2022/08/21 04:04:02;;;;;;;7.72;2.10;;;18.00;99.90;;;;;;4897519;29;20044;-91
2022/08/21 04:06:28;;;;;;;7.63;2.10;;;18.00;99.90;;;;;;4914354;29;20061;-91
2022/08/21 04:08:54;;;;;;;14.15;2.45;;;18.00;99.90;;;;;;4897087;29;20028;-91
2022/08/21 04:11:20;;;;;;;13.50;2.15;;;18.10;99.90;;;;;;4897214;29;20024;-91
2022/08/21 04:13:47;;;;;;;10.13;1.90;;;18.10;99.90;;;;;;4914138;29;20497;-92
2022/08/21 04:16:13;;;;;;;8.25;2.42;;;18.10;99.90;;;;;;4897383;29;20024;-91
2022/08/21 04:18:39;;;;;;;10.70;1.95;;;18.10;99.90;;;;;;4897320;29;20119;-91
2022/08/21 04:21:07;;;;;;;8.98;1.67;;;18.10;99.90;;;;;;4897476;29;20027;-90
2022/08/21 04:23:33;;;;;;;8.20;2.05;;;18.00;99.90;;;;;;4914677;29;20497;-92
2022/08/21 04:25:58;;;;;;;8.93;1.85;;;18.00;99.90;;;;;;4897266;29;20047;-91
2022/08/21 04:28:26;;;;;;;10.48;2.22;;;18.00;99.90;;;;;;4897106;29;20054;-91
2022/08/21 04:30:52;;;;;;;12.40;1.90;;;18.00;99.90;;;;;;4913942;29;20156;-91
2022/08/21 04:33:19;;;;;;;7.28;1.70;;;18.00;99.90;;;;;;4897082;29;20028;-91
2022/08/21 04:35:44;;;;;;;6.93;1.73;;;18.00;99.90;;;;;;4897062;29;20024;-91
2022/08/21 04:38:10;;;;;;;14.10;2.58;;;18.00;99.90;;;;;;4912978;29;20055;-90
2022/08/21 04:40:36;;;;;;;9.57;1.67;;;17.90;99.90;;;;;;4897138;29;20036;-90
2022/08/21 04:43:05;;;;;;;13.50;3.00;;;17.90;99.90;;;;;;4914008;29;20060;-91
2022/08/21 04:45:33;;;;;;;9.98;2.28;;;17.90;99.90;;;;;;4914119;29;20032;-91
2022/08/21 04:48:01;;;;;;;11.27;2.45;;;17.90;99.90;;;;;;4913744;29;20119;-91
2022/08/21 04:50:44;;;;;;;8.60;2.13;;;17.90;99.90;;;;;;4913875;29;20137;-91
2022/08/21 04:53:47;;;;;;;6.50;1.65;;;17.90;99.90;;;;;;4899157;29;20070;-92
2022/08/21 04:56:22;;;;;;;8.18;1.92;;;17.90;99.90;;;;;;4917678;29;20032;-92
2022/08/21 04:58:49;;;;;;;8.95;1.88;;;17.80;99.90;;;;;;4917649;29;20016;-91
2022/08/21 05:01:20;;;;;;;12.38;2.10;;;17.80;99.90;;;;;;4917840;29;20036;-91
2022/08/21 05:03:49;;;;;;;11.05;2.30;;;17.80;99.90;;;;;;4917080;29;20024;-90
2022/08/21 05:06:16;;;;;;;8.13;1.85;;;17.80;99.90;;;;;;4917599;29;20072;-91
2022/08/21 05:08:45;;;;;;;6.78;1.73;;;17.80;99.90;;;;;;4917200;29;20028;-91
2022/08/21 05:11:11;;;;;;;9.77;2.15;;;17.80;99.90;;;;;;4916956;29;20107;-91
2022/08/21 05:13:37;;;;;;;9.85;2.20;;;17.80;99.90;;;;;;4897015;29;20028;-90
2022/08/21 05:16:03;;;;;;;7.97;1.88;;;17.80;99.90;;;;;;4915698;29;20032;-91
2022/08/21 05:18:29;;;;;;;5.50;1.85;;;17.90;99.90;;;;;;4917398;29;20032;-91
2022/08/21 05:20:54;;;;;;;7.68;2.00;;;17.90;99.90;;;;;;4916822;29;20099;-91
2022/08/21 05:23:20;;;;;;;11.82;2.75;;;17.90;99.90;;;;;;4916920;29;20032;-91
2022/08/21 05:25:46;;;;;;;8.80;1.88;;;17.90;99.90;;;;;;4916895;29;20117;-92
2022/08/21 05:28:12;;;;;;;9.55;1.92;;;17.90;99.90;;;;;;4917344;29;20485;-92
2022/08/21 05:30:38;;;;;;;10.55;2.10;;;17.90;99.90;;;;;;4899745;29;20024;-92
2022/08/21 05:33:05;;;;;;;10.57;1.85;;;17.90;99.90;;;;;;4916600;29;20051;-91
2022/08/21 05:35:32;;;;;;;9.05;1.98;;;17.90;99.90;;;;;;4917265;29;20107;-92
2022/08/21 05:37:59;;;;;;;12.63;2.75;;;18.00;99.90;;;;;;4900653;29;20031;-92
2022/08/21 05:40:26;;;;;;;9.52;1.98;;;18.00;99.90;;;;;;4917649;29;20079;-92
2022/08/21 05:42:53;;;;;;;9.73;2.28;;;18.00;99.90;;;;;;4901962;29;20079;-93
2022/08/21 05:45:19;;;;;;;8.48;2.13;;;18.10;99.90;;;;;;4876477;29;20029;-92
2022/08/21 05:47:45;;;;;;;7.03;1.98;;;18.10;99.90;;;;;;4915488;29;20051;-91
2022/08/21 05:50:11;;;;;;;8.60;2.15;;;18.20;99.90;;;;;;4917567;29;20101;-91
2022/08/21 05:52:37;;;;;;;7.55;2.42;;;18.20;99.90;;;;;;4910133;29;20107;-91
2022/08/21 05:55:03;;;;;;;9.82;2.47;;;18.30;99.90;;;;;;4917889;28;20063;-92
2022/08/21 05:57:29;;;;;;;10.80;2.45;;;18.40;99.90;;;;;;4900839;29;20032;-92
2022/08/21 05:59:55;;;;;;;12.82;2.38;;;18.50;99.90;;;;;;4918041;29;20024;-91
2022/08/21 06:02:21;;;;;;;8.95;1.77;;;18.50;99.90;;;;;;4900160;29;20036;-93
2022/08/21 06:04:47;;;;;;;9.75;2.47;;;18.60;99.90;;;;;;4918079;29;20044;-91
2022/08/21 06:07:14;;;;;;;9.18;2.05;;;18.60;99.90;;;;;;4907527;29;20044;-92
2022/08/21 06:09:40;;;;;;;9.63;2.38;;;18.80;99.90;;;;;;4909364;29;20046;-92
2022/08/21 06:12:08;;;;;;;7.38;2.00;;;18.90;99.90;;;;;;4926138;29;20032;-91
2022/08/21 06:14:34;;;;;;;11.90;2.13;;;19.00;99.90;;;;;;4908594;29;20070;-91
2022/08/21 06:17:07;;;;;;;7.20;1.83;;;19.10;99.90;;;;;;4926415;29;20028;-92
2022/08/21 06:19:34;;;;;;;10.80;2.28;;;19.30;99.90;;;;;;4916556;29;20485;-90
2022/08/21 06:22:00;;;;;;;7.32;1.90;;;19.40;99.90;;;;;;4899627;29;20028;-90
2022/08/21 06:24:26;;;;;;;10.05;2.38;;;19.50;99.90;;;;;;4900020;29;20024;-93
2022/08/21 06:26:53;;;;;;;10.93;3.13;;;19.60;99.90;;;;;;4917073;29;20088;-93
2022/08/21 06:29:19;;;;;;;9.77;2.40;;;19.60;99.90;;;;;;4922016;29;20032;-92
2022/08/21 06:31:47;;;;;;;10.80;2.20;;;19.70;99.90;;;;;;4909140;29;20071;-93
2022/08/21 06:34:13;;;;;;;9.07;2.08;;;19.70;99.90;;;;;;4909713;29;20032;-91
2022/08/21 06:36:39;;;;;;;11.27;1.85;;;19.80;99.90;;;;;;4928495;29;20142;-94
2022/08/21 06:39:05;;;;;;;9.32;2.20;;;19.80;99.90;;;;;;4911828;29;20153;-93
2022/08/21 06:41:34;;;;;;;12.38;2.10;;;19.80;99.90;;;;;;4910697;29;20016;-92
2022/08/21 06:44:00;;;;;;;11.30;2.88;;;19.80;99.90;;;;;;4926865;29;20039;-91
2022/08/21 06:46:29;;;;;;;9.50;2.00;;;19.90;99.90;;;;;;4925923;29;20548;-92
2022/08/21 06:48:57;;;;;;;12.48;2.15;;;19.90;99.90;;;;;;4909498;29;20028;-92
2022/08/21 06:51:23;;;;;;;9.57;2.15;;;19.90;99.90;;;;;;4926441;29;20020;-92
2022/08/21 06:53:49;;;;;;;10.32;1.95;;;20.00;99.90;;;;;;4926000;29;20024;-92
2022/08/21 06:56:15;;;;;;;8.35;2.35;;;20.00;99.90;;;;;;4908898;29;20103;-92
2022/08/21 06:58:42;;;;;;;12.95;2.03;;;20.10;99.90;;;;;;4918031;29;20039;-93
2022/08/21 07:01:07;;;;;;;10.07;1.83;;;20.10;99.90;;;;;;4909939;29;20055;-93
2022/08/21 07:03:40;;;;;;;9.93;2.00;;;20.10;99.90;;;;;;4909520;29;20324;-92
2022/08/21 07:06:07;;;;;;;8.20;1.67;;;20.10;99.90;;;;;;4909291;29;20048;-89
2022/08/21 07:08:34;;;;;;;9.07;1.70;;;20.20;99.90;;;;;;4907393;29;20500;-90
2022/08/21 07:11:02;;;;;;;13.05;2.22;;;20.30;99.90;;;;;;4916120;29;20048;-90
2022/08/21 07:13:28;;;;;;;7.82;1.60;;;20.40;99.90;;;;;;4925493;29;20032;-93
2022/08/21 07:15:53;;;;;;;9.70;2.03;;;20.40;99.90;;;;;;4925076;29;20036;-89
2022/08/21 07:18:19;;;;;;;9.50;1.98;;;20.50;99.90;;;;;;4925531;29;20030;-90
2022/08/21 07:20:46;;;;;;;10.80;2.47;;;20.50;99.90;;;;;;4925739;29;20087;-88
2022/08/21 07:23:31;;;;;;;9.65;1.73;;;20.40;99.90;;;;;;4924827;29;20339;-90
2022/08/21 07:25:59;;;;;;;10.85;2.22;;;20.50;99.90;;;;;;4925360;29;20050;-91
2022/08/21 07:28:24;;;;;;;9.98;2.08;;;20.60;99.90;;;;;;4925139;29;20027;-90
2022/08/21 07:30:53;;;;;;;8.85;1.95;;;20.80;99.90;;;;;;4925065;29;20044;-84
2022/08/21 07:33:19;;;;;;;11.57;2.22;;;21.10;99.90;;;;;;4924840;29;20020;-84
2022/08/21 07:35:44;;;;;;;9.55;2.03;;;21.30;99.90;;;;;;4924908;29;20043;-83
2022/08/21 07:38:10;;;;;;;8.55;2.10;;;21.30;99.90;;;;;;4924530;29;20204;-84
2022/08/21 07:40:35;;;;;;;9.40;1.80;;;21.30;99.90;;;;;;4924624;29;20035;-82
2022/08/21 07:43:02;;;;;;;12.00;1.98;;;21.20;99.90;;;;;;4924245;29;20079;-83
2022/08/21 07:45:28;;;;;;;12.82;2.10;;;21.30;99.90;;;;;;4924428;29;20023;-82
2022/08/21 07:47:54;;;;;;;9.68;2.28;;;21.10;99.90;;;;;;4924473;29;20109;-82
2022/08/21 07:50:20;;;;;;;10.30;2.22;;;21.00;99.90;;;;;;4924906;29;20308;-82
2022/08/21 07:52:46;;;;;;;10.88;1.95;;;21.00;99.90;;;;;;4924148;29;20039;-82
2022/08/21 07:55:14;;;;;;;9.40;1.98;;;21.00;99.90;;;;;;4924176;29;20028;-82
2022/08/21 07:57:40;;;;;;;11.07;2.55;;;21.00;99.90;;;;;;4924101;29;20024;-82
2022/08/21 08:00:09;;;;;;;10.40;1.70;;;21.10;99.90;;;;;;4924772;29;20366;-83
2022/08/21 08:02:35;;;;;;;9.57;1.75;;;21.30;99.90;;;;;;4924350;29;20125;-82
2022/08/21 08:05:03;;;;;;;13.75;2.58;;;21.40;99.90;;;;;;4924697;29;20052;-84
2022/08/21 08:07:28;;;;;;;15.88;2.20;;;21.50;99.90;;;;;;4923890;29;20055;-83
2022/08/21 08:09:54;;;;;;;8.65;1.75;;;21.60;99.90;;;;;;4907660;29;20020;-83
2022/08/21 08:12:20;;;;;;;11.85;1.80;;;21.70;99.90;;;;;;4924334;29;20036;-85
2022/08/21 08:14:46;;;;;;;11.40;2.45;;;21.80;99.90;;;;;;4924388;29;20028;-84
2022/08/21 08:17:13;;;;;;;11.52;2.40;;;21.90;99.90;;;;;;4924395;29;20196;-83
2022/08/21 08:19:39;;;;;;;11.82;2.25;;;22.10;99.90;;;;;;4924260;29;20028;-83
2022/08/21 08:22:14;;;;;;;13.45;2.55;;;22.20;99.90;;;;;;4923941;29;20504;-83
2022/08/21 08:24:40;;;;;;;13.82;2.92;;;22.30;99.90;;;;;;4923660;29;20024;-83
2022/08/21 08:27:05;;;;;;;12.32;2.80;;;22.30;99.90;;;;;;4925103;29;20095;-90
2022/08/21 08:29:31;;;;;;;9.45;2.00;;;22.30;99.90;;;;;;4928377;29;20036;-90
2022/08/21 08:31:57;;;;;;;12.70;2.40;;;22.30;99.90;;;;;;4928040;29;20024;-91
2022/08/21 08:34:23;;;;;;;8.52;2.05;;;22.30;99.90;;;;;;4927697;29;20024;-88
2022/08/21 08:36:49;;;;;;;6.30;1.92;;;22.40;99.90;;;;;;4927643;29;20038;-88
2022/08/21 08:39:14;;;;;;;7.72;1.90;;;22.40;99.90;;;;;;4927458;29;20032;-88
2022/08/21 08:41:43;;;;;;;11.48;2.80;;;22.50;99.90;;;;;;4917779;29;20027;-90
2022/08/21 08:44:08;;;;;;;12.07;2.78;;;22.50;99.90;;;;;;4917698;29;20048;-88
2022/08/21 08:46:43;;;;;;;14.23;3.17;;;22.50;99.90;;;;;;4917307;29;20075;-87
2022/08/21 08:49:36;;;;;;;10.75;2.55;;;22.30;99.90;;;;;;4900227;29;20028;-85
2022/08/21 08:52:07;;;;;;;13.40;3.22;;;22.30;99.90;;;;;;4915785;29;20149;-84
2022/08/21 08:54:58;;;;;;;16.83;2.95;;;22.20;99.90;;;;;;4916812;29;20039;-85
2022/08/21 08:57:24;;;;;;;12.60;2.95;;;22.10;99.90;;;;;;4916619;29;20026;-85
2022/08/21 08:59:57;;;;;;;15.05;2.80;;;22.00;99.90;;;;;;4916850;29;20032;-85
2022/08/21 09:02:23;;;;;;;11.68;2.35;;;22.10;99.90;;;;;;4916780;29;20036;-85
2022/08/21 09:04:51;;;;;;;9.35;2.42;;;21.90;99.90;;;;;;4916630;29;20047;-86
2022/08/21 09:07:38;;;;;;;10.77;2.40;;;21.80;99.90;;;;;;4917048;29;20134;-86
2022/08/21 09:10:12;;;;;;;10.35;2.00;;;21.70;99.90;;;;;;4925651;29;20028;-88
2022/08/21 09:13:01;;;;;;;16.73;2.80;;;21.60;99.90;;;;;;4940588;29;20032;-89
2022/08/21 09:15:39;;;;;;;11.25;2.58;;;21.60;99.90;;;;;;4920338;29;20032;-90
2022/08/21 09:18:34;;;;;;;9.82;2.28;;;21.80;99.90;;;;;;4917128;29;20694;-90
2022/08/21 09:21:28;;;;;;;12.00;2.05;;;21.90;99.90;;;;;;4888841;29;20044;-91
2022/08/21 09:24:17;;;;;;;8.70;2.03;;;21.80;99.90;;;;;;4927365;29;20015;-85
2022/08/21 09:27:04;;;;;;;11.20;2.60;;;21.70;99.90;;;;;;4900068;29;20074;-90
2022/08/21 09:29:35;;;;;;;10.75;2.05;;;21.60;99.90;;;;;;4917250;29;20039;-90
2022/08/21 09:32:02;;;;;;;8.02;1.50;;;21.70;99.90;;;;;;4917502;29;20541;-90
2022/08/21 09:34:31;;;;;;;12.00;1.80;;;21.70;99.90;;;;;;4900036;29;20688;-88
2022/08/21 09:36:57;;;;;;;8.40;2.00;;;21.80;99.90;;;;;;4916649;29;20024;-88
2022/08/21 09:39:32;;;;;;;9.50;2.30;;;21.80;99.90;;;;;;4915730;29;20021;-90
2022/08/21 09:42:07;;;;;;;8.43;2.05;;;21.90;99.90;;;;;;4916800;29;20024;-89
2022/08/21 09:44:39;;;;;;;14.23;2.08;;;21.80;99.90;;;;;;4916544;29;20028;-88
2022/08/21 09:47:06;;;;;;;8.50;1.90;;;21.80;99.90;;;;;;4901957;29;20032;-88
2022/08/21 09:49:35;;;;;;;10.27;2.05;;;21.80;99.90;;;;;;4909538;29;20055;-87
2022/08/21 09:52:06;;;;;;;9.00;2.28;;;21.80;99.90;;;;;;4923780;29;20028;-86
2022/08/21 09:54:36;;;;;;;12.13;2.25;;;21.60;99.90;;;;;;4921532;29;20025;-87
2022/08/21 09:57:38;;;;;;;13.60;2.70;;;21.70;99.90;;;;;;4916390;29;20527;-88
2022/08/21 10:00:24;;;;;;;13.43;2.90;;;21.70;99.90;;;;;;4891150;29;20114;-88
2022/08/21 10:03:16;;;;;;;10.32;1.90;;;22.00;99.90;;;;;;4914575;29;20031;-93
2022/08/21 10:06:05;;;;;;;9.77;1.77;;;22.10;99.90;;;;;;4902404;29;20052;-92
2022/08/21 10:08:33;;;;;;;10.45;1.85;;;22.10;99.90;;;;;;4896435;29;20037;-93
2022/08/21 10:11:33;;;;;;;9.23;1.92;;;22.10;99.90;;;;;;4899004;29;20033;-93
2022/08/21 10:14:11;;;;;;;8.32;2.20;;;22.30;99.90;;;;;;4897838;29;20084;-94
2022/08/21 10:17:07;;;;;;;7.75;2.17;;;22.40;99.90;;;;;;4908935;29;20100;-91
2022/08/21 10:19:59;;;;;;;9.15;1.98;;;22.60;99.90;;;;;;4906354;29;20040;-89
2022/08/21 10:22:34;;;;;;;10.23;2.00;;;22.70;99.90;;;;;;4881655;29;20024;-87
2022/08/21 10:25:05;;;;;;;8.77;1.65;;;22.70;99.90;;;;;;4901197;29;20025;-87
2022/08/21 10:27:56;;;;;;;11.15;2.05;;;22.60;99.90;;;;;;4914248;29;20848;-87
2022/08/21 10:30:36;;;;;;;9.48;2.22;;;22.80;99.90;;;;;;4919013;29;20071;-87
2022/08/21 10:33:05;;;;;;;10.38;1.92;;;22.80;99.90;;;;;;4914210;29;20040;-87
2022/08/21 10:35:41;;;;;;;9.30;1.63;;;22.80;99.90;;;;;;4918759;29;20029;-88
2022/08/21 10:38:13;;;;;;;5.22;1.50;;;22.70;99.90;;;;;;4917846;29;20047;-88
2022/08/21 10:40:56;;;;;;;8.30;1.60;;;22.60;99.90;;;;;;4930699;29;20771;-86
2022/08/21 10:43:40;;;;;;;4.50;1.25;;;22.50;99.90;;;;;;4908870;29;20025;-87
2022/08/21 10:46:14;;;;;;;8.93;1.43;;;22.40;99.90;;;;;;4914431;29;20028;-88
2022/08/21 10:48:58;;;;;;;11.10;2.00;;;22.50;99.90;;;;;;4911373;29;20281;-88
2022/08/21 10:51:28;;;;;;;6.45;1.60;;;22.50;99.90;;;;;;4902885;29;20072;-89
2022/08/21 10:54:25;;;;;;;7.70;1.70;;;22.60;99.90;;;;;;4911726;29;20021;-87
2022/08/21 10:56:56;;;;;;;5.68;1.40;;;22.70;99.90;;;;;;4868773;29;20067;-88
2022/08/21 10:59:27;;;;;;;6.93;1.83;;;22.80;99.90;;;;;;4904876;29;20028;-88
2022/08/21 11:02:19;;;;;;;6.25;1.48;;;23.10;99.90;;;;;;4895995;29;20035;-87
2022/08/21 11:05:01;;;;;;;10.20;1.92;;;23.20;99.90;;;;;;4897784;29;20075;-87
2022/08/21 11:07:32;;;;;;;10.23;2.63;;;23.10;99.90;;;;;;4896688;29;20044;-89
2022/08/21 11:10:05;;;;;;;6.43;1.50;;;23.10;99.90;;;;;;4896238;29;20020;-88
2022/08/21 11:12:42;;;;;;;7.75;1.45;;;23.00;99.90;;;;;;4894755;29;20165;-88
2022/08/21 11:15:45;;;;;;;4.80;1.20;;;23.10;99.90;;;;;;4895757;29;20029;-88
2022/08/21 11:18:17;;;;;;;5.95;1.42;;;23.20;99.90;;;;;;4894714;29;20047;-91
2022/08/21 11:20:46;;;;;;;9.52;2.67;;;23.10;99.90;;;;;;4912627;29;20061;-92
2022/08/21 11:23:19;;;;;;;5.22;2.33;;;23.00;99.90;;;;;;4897067;29;20020;-92
2022/08/21 11:26:38;;;;;;;8.50;3.17;;;23.00;99.90;;;;;;4897224;29;20401;-93
2022/08/21 11:29:41;;;;;;;9.55;1.80;;;22.90;99.90;;;;;;4821555;29;20073;-93
2022/08/21 11:32:35;;;;;;;2.42;0.65;;;23.00;99.90;;;;;;4895839;29;20056;-93
2022/08/21 11:35:22;;;;;;;2.75;0.95;;;22.90;99.90;;;;;;4911623;29;20068;-92
2022/08/21 11:37:58;;;;;;;4.50;1.25;;;22.70;99.90;;;;;;4898918;29;20024;-91
2022/08/21 11:40:37;;;;;;;4.47;1.42;;;22.50;99.90;;;;;;4912533;29;20025;-93
2022/08/21 11:43:30;;;;;;;3.70;1.00;;;22.50;99.90;;;;;;4912707;29;20056;-92
2022/08/21 11:46:09;;;;;;;4.20;0.70;;;22.50;99.90;;;;;;4885856;29;20080;-92
2022/08/21 11:48:54;;;;;;;2.25;0.60;;;22.50;99.90;;;;;;4897597;29;20036;-92
2022/08/21 11:51:32;;;;;;;2.22;0.85;;;22.40;99.90;;;;;;4912425;29;20025;-92
2022/08/21 11:54:07;;;;;;;5.13;0.70;;;22.50;99.90;;;;;;4895542;29;20025;-91
2022/08/21 11:56:35;;;;;;;2.65;0.95;;;22.50;99.90;;;;;;4897634;29;20103;-92
2022/08/21 11:59:09;;;;;;;4.13;2.13;;;22.70;99.90;;;;;;4897002;29;20040;-91
2022/08/21 12:01:44;;;;;;;2.03;0.80;;;22.90;99.90;;;;;;4896889;29;20577;-92
2022/08/21 12:04:35;;;;;;;1.83;0.60;;;23.20;99.90;;;;;;4895695;29;20051;-91
2022/08/21 12:07:30;;;;;;;3.05;0.82;;;23.50;99.90;;;;;;4896260;29;20033;-91
2022/08/21 12:09:57;;;;;;;3.28;1.23;;;23.50;99.90;;;;;;4911661;29;20504;-92
2022/08/21 12:12:28;;;;;;;2.35;0.88;;;23.20;99.90;;;;;;4912235;29;20040;-91
2022/08/21 12:15:17;;;;;;;2.03;0.93;;;23.10;99.90;;;;;;4895076;29;20128;-92
2022/08/21 12:18:02;;;;;;;1.25;0.68;;;23.20;99.90;;;;;;4898544;29;20490;-92
2022/08/21 12:20:56;;;;;;;3.72;0.93;;;23.20;99.90;;;;;;4911901;29;20028;-92
2022/08/21 12:23:33;;;;;;;4.80;1.30;;;23.40;99.90;;;;;;4891892;29;20394;-90
2022/08/21 12:26:34;;;;;;;2.38;0.85;;;23.50;99.90;;;;;;4876111;29;20282;-92
2022/08/21 12:29:25;;;;;;;5.65;1.55;;;23.80;99.90;;;;;;4884130;29;20397;-92
2022/08/21 12:31:55;;;;;;;3.83;1.33;;;24.10;99.90;;;;;;4896023;29;20056;-90
2022/08/21 12:34:41;;;;;;;4.28;1.30;;;24.20;99.90;;;;;;4894767;29;20437;-90
2022/08/21 12:37:20;;;;;;;3.58;1.00;;;24.30;99.90;;;;;;4894816;29;20025;-90
2022/08/21 12:39:52;;;;;;;1.55;0.80;;;24.40;99.90;;;;;;4896704;29;20037;-90
2022/08/21 12:42:27;;;;;;;4.00;0.80;;;24.10;99.90;;;;;;4896554;29;20176;-95
2022/08/21 12:45:06;;;;;;;6.45;1.15;;;24.10;99.90;;;;;;4895343;29;20091;-90
2022/08/21 12:47:53;;;;;;;6.30;0.90;;;24.00;99.90;;;;;;4895083;29;20150;-89
2022/08/21 12:50:41;;;;;;;4.90;0.95;;;24.20;99.90;;;;;;4895272;29;20032;-88
2022/08/21 12:53:22;;;;;;;2.88;0.90;;;24.50;99.90;;;;;;4894154;29;20039;-88
2022/08/21 12:55:48;;;;;;;7.25;1.05;;;24.80;99.90;;;;;;4895651;29;20080;-92
2022/08/21 12:58:21;;;;;;;10.20;1.55;;;25.20;99.90;;;;;;4895512;29;20443;-93
2022/08/21 13:00:56;;;;;;;6.88;1.08;;;25.20;99.90;;;;;;4893995;29;20541;-92
2022/08/21 13:03:24;;;;;;;5.30;1.33;;;25.40;99.90;;;;;;4895514;29;20028;-90